Time;durP1;ratioP1;P1;durP2;ratioP2;P2;SDS_P1;SDS_P2;PMS_P1;PMS_P2;Temp;Humidity;BMP_temperature;BMP_pressure;BME280_temperature;BME280_humidity;BME280_pressure;Samples;Min_cycle;Max_cycle;Signal;HPM_P1;HPM_P2
2022/05/21 00:00:29;;;;;;;7.47;1.88;;;17.70;56.70;;;;;;4989672;28;20038;-75
2022/05/21 00:02:55;;;;;;;7.47;2.42;;;17.70;56.80;;;;;;4987196;28;20030;-75
2022/05/21 00:05:24;;;;;;;8.10;1.85;;;17.70;56.90;;;;;;4985587;28;20397;-75
2022/05/21 00:07:49;;;;;;;6.50;1.92;;;17.60;56.80;;;;;;4987729;28;20038;-76
2022/05/21 00:10:17;;;;;;;8.88;2.40;;;17.60;56.80;;;;;;4989221;28;20093;-75
2022/05/21 00:12:44;;;;;;;9.00;2.03;;;17.60;56.90;;;;;;4983750;28;20038;-75
2022/05/21 00:15:12;;;;;;;8.93;2.53;;;17.50;56.80;;;;;;4968637;28;20038;-75
2022/05/21 00:17:38;;;;;;;5.10;2.55;;;17.50;56.90;;;;;;4967830;28;20105;-75
2022/05/21 00:20:07;;;;;;;5.90;2.10;;;17.50;56.90;;;;;;4975539;28;20030;-74
2022/05/21 00:22:33;;;;;;;3.83;1.40;;;17.40;56.80;;;;;;4982424;28;20414;-75
2022/05/21 00:24:59;;;;;;;5.75;2.33;;;17.40;56.90;;;;;;4986312;28;20034;-75
2022/05/21 00:27:24;;;;;;;7.63;2.03;;;17.40;57.00;;;;;;4962283;28;20439;-75
2022/05/21 00:29:50;;;;;;;8.25;1.80;;;17.30;56.90;;;;;;4994142;28;20045;-75
2022/05/21 00:32:16;;;;;;;8.02;2.58;;;17.30;57.00;;;;;;4987488;28;20053;-75
2022/05/21 00:34:42;;;;;;;7.35;2.80;;;17.30;57.10;;;;;;4987179;28;20038;-75
2022/05/21 00:37:08;;;;;;;8.32;2.63;;;17.30;57.20;;;;;;4969870;28;20038;-76
2022/05/21 00:39:34;;;;;;;9.77;2.88;;;17.20;57.10;;;;;;4953233;28;20034;-76
2022/05/21 00:42:07;;;;;;;11.70;2.97;;;17.20;57.10;;;;;;4985918;28;20137;-77
2022/05/21 00:44:33;;;;;;;7.68;1.70;;;17.10;57.10;;;;;;4972966;28;20045;-77
2022/05/21 00:46:59;;;;;;;5.72;1.50;;;17.10;57.70;;;;;;4981527;28;20054;-76
2022/05/21 00:49:33;;;;;;;5.63;1.65;;;17.10;57.20;;;;;;4994122;28;20518;-76
2022/05/21 00:52:13;;;;;;;8.88;2.65;;;17.10;57.30;;;;;;4988950;28;20034;-75
2022/05/21 00:54:47;;;;;;;8.18;2.50;;;17.10;57.40;;;;;;4985970;28;20411;-75
2022/05/21 00:59:47;;;;;;;8.27;1.95;;;17.10;58.00;;;;;;4985088;28;20034;-75
2022/05/21 01:00:36;;;;;;;7.15;1.77;;;17.00;57.40;;;;;;4971853;28;20114;-76
2022/05/21 01:03:02;;;;;;;10.02;1.75;;;17.00;57.20;;;;;;4969131;28;20082;-75
2022/05/21 01:05:29;;;;;;;5.22;1.42;;;17.00;57.30;;;;;;4988462;28;20507;-75
2022/05/21 01:07:58;;;;;;;6.47;2.63;;;16.90;57.20;;;;;;4965306;28;20474;-75
2022/05/21 01:10:28;;;;;;;6.95;1.73;;;16.90;57.30;;;;;;4986846;28;20394;-75
2022/05/21 01:12:56;;;;;;;8.48;2.05;;;16.90;57.30;;;;;;4982059;28;20062;-75
2022/05/21 01:15:30;;;;;;;8.68;2.10;;;16.90;57.40;;;;;;4995042;28;20681;-75
2022/05/21 01:17:56;;;;;;;5.70;1.70;;;16.90;57.50;;;;;;4983314;28;20037;-76
2022/05/21 01:20:33;;;;;;;7.28;2.30;;;16.80;57.30;;;;;;4990158;28;20077;-75
2022/05/21 01:22:59;;;;;;;8.02;1.88;;;16.80;57.40;;;;;;4969100;28;20061;-76
2022/05/21 01:25:29;;;;;;;6.50;1.95;;;16.80;57.50;;;;;;4967688;28;20065;-75
2022/05/21 01:27:55;;;;;;;6.53;2.33;;;16.80;57.50;;;;;;4981846;28;20085;-75
2022/05/21 01:30:29;;;;;;;6.32;1.60;;;16.70;57.40;;;;;;4982760;28;20046;-75
2022/05/21 01:32:55;;;;;;;7.78;2.08;;;16.80;57.70;;;;;;4938167;28;20545;-76
2022/05/21 01:35:21;;;;;;;6.13;2.15;;;16.70;57.50;;;;;;4959756;28;20031;-76
2022/05/21 01:37:48;;;;;;;6.97;2.15;;;16.70;57.60;;;;;;4981815;28;20056;-76
2022/05/21 01:40:17;;;;;;;8.95;2.03;;;16.70;57.70;;;;;;4980045;28;20035;-76
2022/05/21 01:42:43;;;;;;;7.88;2.38;;;16.70;57.80;;;;;;4983888;28;20034;-75
2022/05/21 01:45:10;;;;;;;6.18;1.48;;;16.60;57.70;;;;;;4967367;28;20034;-75
2022/05/21 01:47:41;;;;;;;9.20;3.65;;;16.60;57.70;;;;;;4982761;28;20046;-75
2022/05/21 01:50:08;;;;;;;9.95;3.38;;;16.60;57.80;;;;;;4999867;28;20056;-76
2022/05/21 01:52:35;;;;;;;7.82;2.50;;;16.50;57.70;;;;;;4960267;28;20058;-76
2022/05/21 01:55:00;;;;;;;8.68;2.00;;;16.60;57.90;;;;;;4982429;28;20042;-76
2022/05/21 01:57:27;;;;;;;11.23;3.03;;;16.50;57.70;;;;;;4977850;28;20033;-76
2022/05/21 01:59:52;;;;;;;5.60;1.98;;;16.50;57.80;;;;;;4986394;28;20324;-75
2022/05/21 02:02:19;;;;;;;8.43;2.20;;;16.50;57.80;;;;;;4980983;28;20038;-74
2022/05/21 02:04:45;;;;;;;7.93;2.28;;;16.50;57.90;;;;;;4981149;28;20050;-76
2022/05/21 02:07:11;;;;;;;5.90;2.15;;;16.50;57.90;;;;;;4986233;28;20263;-75
2022/05/21 02:09:37;;;;;;;5.90;1.70;;;16.40;57.80;;;;;;4966361;28;20039;-76
2022/05/21 02:12:03;;;;;;;5.95;2.05;;;16.40;57.80;;;;;;4986333;28;20159;-75
2022/05/21 02:14:28;;;;;;;7.30;1.98;;;16.40;57.90;;;;;;4984546;28;20133;-75
2022/05/21 02:16:54;;;;;;;10.70;2.53;;;16.40;57.90;;;;;;4985616;28;20117;-75
2022/05/21 02:19:20;;;;;;;8.70;1.75;;;16.40;57.90;;;;;;4987107;28;20103;-75
2022/05/21 02:21:46;;;;;;;6.63;2.13;;;16.40;58.00;;;;;;4969558;28;20447;-75
2022/05/21 02:24:13;;;;;;;7.07;2.35;;;16.40;58.10;;;;;;4969201;28;20339;-76
2022/05/21 02:26:39;;;;;;;7.22;1.85;;;16.40;58.10;;;;;;4986515;28;20118;-75
2022/05/21 02:29:07;;;;;;;6.28;2.17;;;16.30;57.90;;;;;;4968845;28;20546;-75
2022/05/21 02:31:33;;;;;;;6.85;1.92;;;16.30;58.00;;;;;;4989391;28;20048;-74
2022/05/21 02:33:59;;;;;;;7.70;2.45;;;16.30;58.10;;;;;;4990346;28;20495;-74
2022/05/21 02:39:31;;;;;;;11.23;2.97;;;16.20;58.00;;;;;;4989279;28;20034;-74
2022/05/21 02:41:59;;;;;;;5.60;1.83;;;16.20;58.00;;;;;;4993335;28;20374;-75
2022/05/21 02:44:25;;;;;;;10.55;2.75;;;16.20;58.10;;;;;;4971824;28;20029;-75
2022/05/21 02:46:52;;;;;;;7.07;2.00;;;16.20;58.10;;;;;;4989428;28;20050;-74
2022/05/21 02:49:18;;;;;;;7.07;2.15;;;16.10;58.60;;;;;;4983394;28;20022;-74
2022/05/21 02:51:44;;;;;;;9.45;2.33;;;16.10;58.10;;;;;;4984144;28;20045;-75
2022/05/21 02:54:14;;;;;;;8.73;2.10;;;16.10;58.10;;;;;;4986872;28;20390;-74
2022/05/21 02:56:46;;;;;;;9.65;2.40;;;16.10;58.10;;;;;;4989502;28;20072;-74
2022/05/21 02:59:12;;;;;;;6.78;1.85;;;16.10;58.20;;;;;;4981934;28;20022;-75
2022/05/21 03:01:38;;;;;;;10.25;2.63;;;16.00;58.00;;;;;;4972455;28;20426;-74
2022/05/21 03:04:04;;;;;;;11.45;2.70;;;16.10;58.30;;;;;;4974756;28;20030;-74
2022/05/21 03:06:30;;;;;;;10.50;2.70;;;16.00;58.10;;;;;;4991930;28;20355;-75
2022/05/21 03:11:40;;;;;;;6.30;1.90;;;16.00;58.20;;;;;;4983477;28;20157;-74
2022/05/21 03:14:06;;;;;;;11.30;2.22;;;16.00;58.20;;;;;;4965305;28;20109;-75
2022/05/21 03:16:32;;;;;;;7.50;1.90;;;16.00;58.30;;;;;;4996595;28;20045;-75
2022/05/21 03:18:58;;;;;;;8.18;2.28;;;15.90;58.20;;;;;;4964271;28;20401;-75
2022/05/21 03:21:24;;;;;;;7.97;1.85;;;15.90;58.30;;;;;;4986908;28;20726;-76
2022/05/21 03:23:50;;;;;;;8.60;1.67;;;15.90;58.20;;;;;;4988496;28;20258;-75
2022/05/21 03:26:16;;;;;;;8.48;2.38;;;15.90;58.30;;;;;;4989406;28;20022;-77
2022/05/21 03:28:41;;;;;;;7.57;1.90;;;15.90;58.40;;;;;;4980381;28;20041;-77
2022/05/21 03:31:07;;;;;;;7.57;2.25;;;15.80;58.80;;;;;;4985898;28;20277;-77
2022/05/21 03:33:33;;;;;;;7.78;2.40;;;15.80;58.30;;;;;;4989125;28;20022;-77
2022/05/21 03:35:59;;;;;;;11.00;2.22;;;15.80;58.40;;;;;;4993174;28;20039;-76
2022/05/21 03:38:25;;;;;;;9.05;1.98;;;15.80;58.40;;;;;;4989104;28;20046;-77
2022/05/21 03:40:51;;;;;;;8.40;1.90;;;15.70;58.30;;;;;;4970967;28;20029;-77
2022/05/21 03:43:16;;;;;;;8.98;1.95;;;15.70;58.30;;;;;;4988574;28;20054;-76
2022/05/21 03:45:42;;;;;;;6.05;2.15;;;15.70;58.40;;;;;;4989221;28;20057;-76
2022/05/21 03:48:09;;;;;;;10.55;2.15;;;15.70;58.50;;;;;;4987586;28;20046;-76
2022/05/21 03:50:36;;;;;;;10.82;2.30;;;15.60;58.40;;;;;;4980758;28;20121;-77
2022/05/21 03:53:02;;;;;;;10.48;3.63;;;15.60;58.40;;;;;;4990109;28;20725;-76
2022/05/21 03:55:30;;;;;;;15.68;3.10;;;15.60;58.40;;;;;;4984061;28;20436;-76
2022/05/21 03:57:57;;;;;;;8.70;2.08;;;15.60;58.50;;;;;;4983339;28;20034;-77
2022/05/21 04:00:22;;;;;;;11.40;3.00;;;15.50;58.40;;;;;;4980364;28;20133;-76
2022/05/21 04:02:48;;;;;;;8.55;2.50;;;15.50;58.50;;;;;;4995439;28;20081;-76
2022/05/21 04:05:15;;;;;;;11.00;3.33;;;15.50;58.50;;;;;;4971491;28;20036;-77
2022/05/21 04:07:41;;;;;;;15.02;4.30;;;15.50;58.60;;;;;;4985787;28;20114;-76
2022/05/21 04:10:09;;;;;;;11.73;2.83;;;15.40;58.40;;;;;;4982196;28;20034;-76
2022/05/21 04:12:35;;;;;;;8.20;1.88;;;15.40;58.50;;;;;;4982696;28;20034;-75
2022/05/21 04:15:04;;;;;;;8.13;2.38;;;15.40;58.50;;;;;;4988086;28;20097;-76
2022/05/21 04:17:30;;;;;;;9.77;1.90;;;15.40;58.60;;;;;;4991528;28;20128;-76
2022/05/21 04:19:56;;;;;;;7.22;2.97;;;15.40;58.60;;;;;;4988333;28;20034;-76
2022/05/21 04:22:21;;;;;;;9.25;3.05;;;15.30;58.50;;;;;;4969493;28;20117;-75
2022/05/21 04:24:48;;;;;;;11.00;2.53;;;15.30;58.60;;;;;;4981857;28;20499;-76
2022/05/21 04:27:13;;;;;;;10.93;2.88;;;15.30;58.60;;;;;;4982094;28;20033;-76
2022/05/21 04:29:39;;;;;;;8.73;2.40;;;15.30;58.70;;;;;;4970546;28;20348;-76
2022/05/21 04:32:06;;;;;;;7.78;2.40;;;15.30;58.80;;;;;;4992630;28;20559;-76
2022/05/21 04:34:32;;;;;;;10.45;3.67;;;15.30;58.80;;;;;;4980729;28;20438;-76
2022/05/21 04:36:57;;;;;;;9.93;3.45;;;15.20;58.70;;;;;;4989203;28;20026;-76
2022/05/21 04:39:23;;;;;;;11.93;2.90;;;15.20;58.70;;;;;;4991493;28;20049;-76
2022/05/21 04:41:49;;;;;;;7.97;1.85;;;15.20;58.80;;;;;;4954985;28;20049;-77
2022/05/21 04:44:15;;;;;;;7.22;1.92;;;15.20;58.80;;;;;;4954074;28;20038;-77
2022/05/21 04:46:42;;;;;;;8.65;2.50;;;15.20;58.90;;;;;;4988298;28;20537;-77
2022/05/21 04:49:08;;;;;;;12.23;2.63;;;15.10;58.70;;;;;;4981612;28;20027;-77
2022/05/21 04:51:38;;;;;;;12.30;3.33;;;15.10;58.70;;;;;;4978993;28;20038;-75
2022/05/21 04:54:05;;;;;;;10.82;2.35;;;15.20;59.00;;;;;;4980284;28;20057;-76
2022/05/21 04:56:31;;;;;;;9.30;2.00;;;15.10;58.80;;;;;;4984223;28;20037;-75
2022/05/21 04:59:00;;;;;;;8.13;2.22;;;15.20;59.00;;;;;;4973443;28;20347;-75
2022/05/21 05:01:30;;;;;;;6.95;2.40;;;15.20;59.00;;;;;;4986192;28;20049;-75
2022/05/21 05:03:56;;;;;;;8.70;2.97;;;15.20;58.90;;;;;;4987692;28;20454;-75
2022/05/21 05:06:22;;;;;;;11.15;3.53;;;15.20;58.90;;;;;;4958423;28;20377;-75
2022/05/21 05:08:48;;;;;;;5.75;2.17;;;15.20;58.90;;;;;;4968020;28;20031;-75
2022/05/21 05:11:14;;;;;;;9.75;3.40;;;15.20;59.40;;;;;;4968454;28;20052;-76
2022/05/21 05:13:39;;;;;;;10.50;2.90;;;15.30;59.10;;;;;;4977569;28;20057;-76
2022/05/21 05:16:05;;;;;;;9.13;2.83;;;15.30;59.00;;;;;;4980334;28;20049;-75
2022/05/21 05:18:31;;;;;;;7.13;2.42;;;15.30;59.00;;;;;;4986645;28;20030;-75
2022/05/21 05:20:57;;;;;;;7.60;1.92;;;15.30;59.00;;;;;;4994894;28;20642;-75
2022/05/21 05:23:23;;;;;;;7.20;2.08;;;15.40;59.20;;;;;;4969411;28;20038;-75
2022/05/21 05:25:49;;;;;;;7.05;2.20;;;15.40;59.20;;;;;;4988137;28;20106;-75
2022/05/21 05:28:17;;;;;;;10.63;2.85;;;15.40;59.20;;;;;;4983305;28;20076;-75
2022/05/21 05:30:43;;;;;;;6.07;1.90;;;15.40;59.30;;;;;;4976528;28;20065;-75
2022/05/21 05:33:09;;;;;;;8.23;1.65;;;15.40;59.30;;;;;;4982971;28;20085;-74
2022/05/21 05:35:36;;;;;;;9.38;1.90;;;15.40;59.30;;;;;;4970550;28;20034;-75
2022/05/21 05:38:10;;;;;;;6.68;2.35;;;15.40;59.30;;;;;;4986163;28;20030;-75
2022/05/21 05:40:36;;;;;;;8.13;3.10;;;15.50;59.60;;;;;;4968463;28;20260;-76
2022/05/21 05:43:03;;;;;;;7.63;1.95;;;15.50;59.50;;;;;;4976863;28;20101;-75
2022/05/21 05:45:29;;;;;;;8.48;2.55;;;15.50;59.50;;;;;;4990398;28;20533;-77
2022/05/21 05:47:55;;;;;;;8.68;2.67;;;15.50;59.50;;;;;;4987439;28;20081;-77
2022/05/21 05:50:21;;;;;;;9.57;2.30;;;15.60;59.70;;;;;;4953272;28;20042;-77
2022/05/21 05:52:47;;;;;;;10.18;2.42;;;15.60;59.50;;;;;;4974020;28;20031;-78
2022/05/21 05:55:13;;;;;;;9.25;2.45;;;15.70;59.60;;;;;;4977398;28;20066;-79
2022/05/21 05:57:39;;;;;;;13.15;2.88;;;15.80;59.80;;;;;;4971078;28;20066;-76
2022/05/21 06:00:06;;;;;;;12.63;2.83;;;15.80;59.70;;;;;;4974249;28;20510;-75
2022/05/21 06:05:23;;;;;;;12.00;2.45;;;16.00;59.60;;;;;;4989699;28;20030;-74
2022/05/21 06:07:54;;;;;;;8.20;2.25;;;16.10;59.40;;;;;;4985273;28;20049;-77
2022/05/21 06:10:24;;;;;;;9.65;2.78;;;16.10;59.20;;;;;;4978657;28;20070;-73
2022/05/21 06:12:50;;;;;;;10.75;2.67;;;16.20;59.30;;;;;;4977415;28;20035;-76
2022/05/21 06:15:16;;;;;;;11.70;3.08;;;16.20;59.20;;;;;;4977320;28;20537;-75
2022/05/21 06:17:43;;;;;;;17.52;3.08;;;16.20;59.10;;;;;;4975585;28;20030;-86
2022/05/21 06:20:14;;;;;;;9.52;2.80;;;16.30;59.20;;;;;;4968109;28;20029;-86
2022/05/21 06:22:41;;;;;;;12.95;3.10;;;16.30;59.10;;;;;;4977885;28;20038;-77
2022/05/21 06:25:07;;;;;;;11.40;2.42;;;16.30;59.00;;;;;;4986929;28;20088;-78
2022/05/21 06:27:34;;;;;;;10.63;2.13;;;16.30;59.00;;;;;;4982222;28;20039;-84
2022/05/21 06:30:01;;;;;;;12.55;3.05;;;16.30;59.00;;;;;;4969193;28;20052;-78
2022/05/21 06:32:27;;;;;;;11.68;2.72;;;16.40;59.10;;;;;;4979547;28;20057;-75
2022/05/21 06:34:53;;;;;;;12.40;4.20;;;16.50;59.10;;;;;;4984472;28;20482;-86
2022/05/21 06:37:19;;;;;;;11.77;2.70;;;16.60;59.10;;;;;;4965217;28;20057;-78
2022/05/21 06:39:45;;;;;;;10.75;2.20;;;16.60;58.90;;;;;;4987312;28;20030;-81
2022/05/21 06:42:12;;;;;;;12.50;3.05;;;16.70;59.00;;;;;;4985072;28;20057;-85
2022/05/21 06:44:39;;;;;;;14.77;3.08;;;16.70;58.90;;;;;;4980930;28;20061;-79
2022/05/21 06:47:05;;;;;;;9.70;2.72;;;16.80;59.00;;;;;;4983496;28;20144;-79
2022/05/21 06:49:32;;;;;;;12.93;2.75;;;16.90;59.00;;;;;;4966135;28;20057;-78
2022/05/21 06:52:01;;;;;;;13.43;2.53;;;17.00;58.90;;;;;;4983316;28;20038;-78
2022/05/21 06:54:27;;;;;;;12.95;2.35;;;17.10;58.80;;;;;;4981739;28;20455;-79
2022/05/21 06:56:53;;;;;;;8.80;2.97;;;17.20;58.80;;;;;;4965654;28;20022;-91
2022/05/21 06:59:20;;;;;;;11.20;2.90;;;17.30;58.70;;;;;;4982004;28;20034;-79
2022/05/21 07:01:46;;;;;;;13.25;2.70;;;17.40;58.60;;;;;;4965525;28;20145;-80
2022/05/21 07:04:15;;;;;;;9.90;2.88;;;17.70;58.70;;;;;;4983853;28;20149;-78
2022/05/21 07:09:27;;;;;;;13.75;3.42;;;18.00;58.30;;;;;;4980582;28;20576;-78
2022/05/21 07:11:53;;;;;;;13.40;3.20;;;18.00;58.10;;;;;;4972522;28;20030;-76
2022/05/21 07:14:20;;;;;;;12.95;3.08;;;18.10;58.10;;;;;;4986589;28;20033;-78
2022/05/21 07:16:48;;;;;;;10.73;2.17;;;18.20;58.10;;;;;;4975781;28;20039;-77
2022/05/21 07:19:14;;;;;;;12.93;3.45;;;18.30;58.10;;;;;;4973834;28;20058;-76
2022/05/21 07:21:39;;;;;;;11.93;2.58;;;18.40;58.00;;;;;;4982242;28;20073;-76
2022/05/21 07:24:05;;;;;;;11.40;2.83;;;18.50;58.00;;;;;;4974147;28;20043;-78
2022/05/21 07:26:31;;;;;;;10.07;3.00;;;18.50;57.90;;;;;;4992517;28;20030;-77
2022/05/21 07:28:58;;;;;;;7.03;2.35;;;18.50;57.80;;;;;;4986473;28;20034;-82
2022/05/21 07:31:23;;;;;;;12.45;2.97;;;18.50;57.80;;;;;;4985702;28;20038;-82
2022/05/21 07:33:49;;;;;;;11.55;2.30;;;18.50;57.80;;;;;;4985047;28;20204;-82
2022/05/21 07:36:15;;;;;;;12.15;2.80;;;18.50;57.80;;;;;;4973063;28;20030;-83
2022/05/21 07:38:41;;;;;;;13.02;2.35;;;18.50;57.80;;;;;;4983636;28;20842;-82
2022/05/21 07:41:08;;;;;;;13.68;3.30;;;18.50;57.80;;;;;;4986596;28;20679;-82
2022/05/21 07:43:34;;;;;;;13.68;3.20;;;18.50;57.80;;;;;;4980130;28;20034;-74
2022/05/21 07:46:00;;;;;;;13.43;2.83;;;18.50;58.40;;;;;;4974110;28;20401;-75
2022/05/21 07:48:27;;;;;;;14.35;2.72;;;18.50;57.70;;;;;;4981316;28;20655;-75
2022/05/21 07:50:56;;;;;;;13.93;3.58;;;18.50;57.80;;;;;;4985180;28;20081;-75
2022/05/21 07:53:25;;;;;;;11.48;2.38;;;18.40;57.70;;;;;;4966876;28;20177;-75
2022/05/21 07:55:53;;;;;;;8.45;2.03;;;18.30;57.70;;;;;;4983913;28;20034;-75
2022/05/21 07:58:21;;;;;;;11.93;2.10;;;18.30;57.90;;;;;;4981292;28;20069;-74
2022/05/21 08:00:49;;;;;;;10.52;2.30;;;18.30;58.00;;;;;;4984057;28;20096;-75
2022/05/21 08:03:15;;;;;;;12.18;2.25;;;18.20;57.90;;;;;;4967405;28;20031;-74
2022/05/21 08:05:42;;;;;;;14.32;3.53;;;18.20;57.90;;;;;;4985518;28;20034;-74
2022/05/21 08:08:09;;;;;;;11.60;2.60;;;18.20;57.90;;;;;;4970395;28;20030;-75
2022/05/21 08:10:39;;;;;;;11.65;2.45;;;18.10;58.40;;;;;;4992013;28;20046;-74
2022/05/21 08:13:06;;;;;;;9.93;2.03;;;18.10;57.90;;;;;;4984490;28;20426;-75
2022/05/21 08:15:33;;;;;;;9.75;2.40;;;18.10;57.90;;;;;;4980634;28;20069;-74
2022/05/21 08:18:00;;;;;;;10.13;2.22;;;18.10;57.80;;;;;;4962680;28;20073;-75
2022/05/21 08:20:27;;;;;;;11.23;2.60;;;18.10;57.90;;;;;;4977231;28;20093;-74
2022/05/21 08:28:22;;;;;;;9.25;2.53;;;18.00;57.80;;;;;;4982292;28;20472;-76
2022/05/21 08:30:48;;;;;;;11.68;2.75;;;18.10;58.00;;;;;;4966797;28;20038;-75
2022/05/21 08:33:16;;;;;;;10.32;2.45;;;18.10;58.00;;;;;;4982912;28;20112;-74
2022/05/21 08:35:42;;;;;;;11.60;2.65;;;18.10;57.90;;;;;;4989898;28;20065;-74
2022/05/21 08:38:10;;;;;;;9.45;2.92;;;18.00;57.80;;;;;;4988037;28;20395;-76
2022/05/21 08:40:54;;;;;;;9.52;2.70;;;18.00;57.80;;;;;;4983667;28;20417;-75
2022/05/21 08:43:41;;;;;;;10.80;2.40;;;18.00;57.90;;;;;;4985172;28;20038;-76
2022/05/21 08:46:26;;;;;;;10.68;2.47;;;18.10;58.00;;;;;;4974333;28;20058;-76
2022/05/21 08:48:59;;;;;;;10.88;2.35;;;18.10;58.00;;;;;;4982989;28;20046;-75
2022/05/21 08:51:32;;;;;;;10.38;2.55;;;18.10;57.90;;;;;;4984988;28;20057;-78
2022/05/21 08:54:02;;;;;;;9.50;2.60;;;18.10;57.90;;;;;;4980518;28;20031;-77
2022/05/21 08:56:29;;;;;;;10.07;3.05;;;18.10;57.80;;;;;;4986301;28;20117;-77
2022/05/21 08:59:17;;;;;;;9.43;3.15;;;18.20;57.90;;;;;;4966572;28;20134;-76
2022/05/21 09:01:44;;;;;;;13.18;3.60;;;18.30;57.90;;;;;;4984399;28;20157;-77
2022/05/21 09:04:12;;;;;;;13.20;3.33;;;18.30;57.70;;;;;;4967470;28;20039;-79
2022/05/21 09:07:07;;;;;;;12.60;3.40;;;18.50;57.90;;;;;;4967681;28;20041;-79
2022/05/21 09:09:45;;;;;;;11.63;2.72;;;18.50;57.80;;;;;;4977304;28;20370;-76
2022/05/21 09:12:21;;;;;;;14.23;3.55;;;18.60;57.70;;;;;;4973739;28;20033;-76
2022/05/21 09:14:53;;;;;;;16.27;3.65;;;18.60;58.00;;;;;;4965171;28;20497;-76
2022/05/21 09:17:24;;;;;;;13.82;3.60;;;18.60;57.20;;;;;;4982036;28;20034;-77
2022/05/21 09:19:59;;;;;;;14.15;2.90;;;18.70;57.10;;;;;;4960775;28;20034;-78
2022/05/21 09:22:26;;;;;;;13.30;2.97;;;18.80;57.00;;;;;;4967737;28;20041;-78
2022/05/21 09:25:01;;;;;;;12.50;2.53;;;18.80;56.80;;;;;;4972901;28;20034;-78
2022/05/21 09:27:36;;;;;;;13.82;2.97;;;19.00;56.80;;;;;;4985237;28;20026;-77
2022/05/21 09:30:22;;;;;;;11.05;3.22;;;19.10;56.60;;;;;;4981513;28;20497;-77
2022/05/21 09:32:52;;;;;;;13.60;3.10;;;19.20;56.40;;;;;;4972464;28;20038;-77
2022/05/21 09:35:25;;;;;;;16.13;3.67;;;19.40;56.60;;;;;;4983459;28;20180;-75
2022/05/21 09:37:51;;;;;;;10.30;2.20;;;19.40;56.20;;;;;;4967642;28;20080;-77
2022/05/21 09:40:37;;;;;;;12.52;3.22;;;19.60;56.10;;;;;;4971526;28;20049;-78
2022/05/21 09:46:22;;;;;;;14.85;5.13;;;19.80;55.50;;;;;;4973112;28;20041;-77
2022/05/21 09:48:50;;;;;;;15.18;3.33;;;20.00;55.20;;;;;;4980318;28;20443;-76
2022/05/21 09:51:29;;;;;;;9.55;2.63;;;20.10;55.20;;;;;;4964559;28;20042;-79
2022/05/21 09:53:57;;;;;;;9.43;3.05;;;20.20;54.80;;;;;;4985250;28;20041;-78
2022/05/21 09:56:32;;;;;;;15.13;4.47;;;20.10;54.50;;;;;;4979995;28;20027;-78
2022/05/21 09:59:14;;;;;;;15.30;2.45;;;20.10;55.00;;;;;;4986443;28;20070;-78
2022/05/21 10:01:44;;;;;;;12.32;3.00;;;20.10;54.30;;;;;;4975172;28;20042;-78
2022/05/21 10:04:35;;;;;;;8.85;2.92;;;20.30;54.50;;;;;;4980295;28;20030;-78
2022/05/21 10:10:58;;;;;;;10.18;3.17;;;20.40;54.00;;;;;;4986599;28;20035;-79
2022/05/21 10:12:59;;;;;;;13.25;3.13;;;20.60;53.80;;;;;;4984425;28;20030;-78
2022/05/21 10:15:29;;;;;;;14.13;3.22;;;20.60;53.30;;;;;;4968901;28;20077;-79
2022/05/21 10:18:11;;;;;;;10.15;1.88;;;20.70;52.80;;;;;;4963346;28;20371;-78
2022/05/21 10:20:44;;;;;;;10.85;2.78;;;20.90;52.70;;;;;;4979611;28;20410;-77
2022/05/21 10:23:38;;;;;;;7.10;2.17;;;21.10;52.50;;;;;;4978791;28;20045;-78
2022/05/21 10:26:22;;;;;;;12.13;4.00;;;21.40;52.10;;;;;;4984195;28;20089;-75
2022/05/21 10:29:23;;;;;;;9.38;2.53;;;21.70;52.00;;;;;;4983898;28;20030;-76
2022/05/21 10:32:05;;;;;;;9.15;2.10;;;22.00;51.40;;;;;;4966853;28;20038;-77
2022/05/21 10:35:09;;;;;;;11.45;2.20;;;22.30;50.90;;;;;;4972993;28;20030;-79
2022/05/21 10:37:52;;;;;;;7.43;1.92;;;22.50;50.50;;;;;;4983477;28;20134;-75
2022/05/21 10:40:50;;;;;;;9.73;2.33;;;22.60;50.70;;;;;;4982318;28;20309;-77
2022/05/21 10:43:34;;;;;;;7.88;2.05;;;22.70;50.20;;;;;;4965880;28;20142;-77
2022/05/21 10:46:18;;;;;;;9.57;2.17;;;22.80;49.90;;;;;;4966856;28;20493;-78
2022/05/21 10:48:56;;;;;;;7.90;1.98;;;22.90;49.90;;;;;;4982641;28;20688;-78
2022/05/21 10:51:24;;;;;;;11.07;2.50;;;23.00;49.70;;;;;;4980799;28;20038;-77
2022/05/21 10:54:02;;;;;;;9.45;2.20;;;23.10;49.50;;;;;;4973572;28;20485;-79
2022/05/21 10:57:00;;;;;;;12.82;2.95;;;23.30;49.20;;;;;;4968543;28;20030;-76
2022/05/21 10:59:35;;;;;;;7.50;2.33;;;23.50;48.90;;;;;;4984755;28;20424;-78
2022/05/21 11:02:39;;;;;;;8.60;2.88;;;23.70;49.30;;;;;;4958235;28;20034;-76
2022/05/21 11:05:33;;;;;;;11.90;3.33;;;23.80;48.70;;;;;;4984845;28;20122;-80
2022/05/21 11:08:17;;;;;;;9.98;3.60;;;23.80;48.60;;;;;;4982041;28;20034;-78
2022/05/21 11:11:22;;;;;;;8.23;2.55;;;23.70;48.60;;;;;;4981074;28;20085;-80
2022/05/21 11:13:55;;;;;;;9.82;2.38;;;23.70;48.30;;;;;;4968222;28;20086;-77
2022/05/21 11:16:42;;;;;;;6.13;2.13;;;23.80;48.80;;;;;;4983048;28;20045;-77
2022/05/21 11:19:25;;;;;;;10.15;2.08;;;23.90;48.10;;;;;;4978489;28;20035;-82
2022/05/21 11:22:03;;;;;;;6.40;1.95;;;24.10;47.90;;;;;;4968912;28;20031;-78
2022/05/21 11:24:33;;;;;;;5.28;2.05;;;24.20;47.80;;;;;;4974726;28;20129;-79
2022/05/21 11:27:13;;;;;;;10.73;2.35;;;24.40;47.90;;;;;;4991223;28;20054;-77
2022/05/21 11:29:42;;;;;;;7.75;1.80;;;24.50;47.30;;;;;;4989660;28;20201;-78
2022/05/21 11:38:42;;;;;;;4.53;1.70;;;25.10;46.70;;;;;;4983528;28;20125;-77
2022/05/21 11:41:24;;;;;;;7.43;2.13;;;25.20;46.50;;;;;;4974875;28;20661;-79
2022/05/21 11:47:07;;;;;;;6.43;1.63;;;25.20;46.30;;;;;;4983322;28;20084;-77
2022/05/21 11:49:36;;;;;;;3.20;1.15;;;25.10;45.60;;;;;;4965165;28;20038;-77
2022/05/21 11:52:27;;;;;;;6.18;1.60;;;25.20;45.60;;;;;;4976986;28;20038;-77
2022/05/21 11:55:11;;;;;;;6.28;1.90;;;25.20;44.80;;;;;;4979901;28;20064;-77
2022/05/21 11:57:42;;;;;;;6.43;2.13;;;25.20;44.80;;;;;;4968154;28;20038;-76
2022/05/21 12:00:15;;;;;;;4.68;1.52;;;25.10;45.10;;;;;;4983481;28;20408;-78
2022/05/21 12:02:53;;;;;;;6.22;1.85;;;25.00;45.00;;;;;;4983627;28;20109;-84
2022/05/21 12:08:38;;;;;;;13.85;2.28;;;24.80;44.30;;;;;;4984741;28;20478;-77
2022/05/21 12:11:09;;;;;;;6.88;1.67;;;24.70;44.10;;;;;;4983716;28;20537;-73
2022/05/21 12:13:39;;;;;;;5.80;2.70;;;24.60;44.30;;;;;;4983404;28;20033;-73
2022/05/21 12:16:16;;;;;;;9.13;2.72;;;24.70;44.50;;;;;;4980008;28;20066;-77
2022/05/21 12:18:51;;;;;;;9.10;2.42;;;24.70;44.20;;;;;;4983746;28;20109;-73
2022/05/21 12:21:40;;;;;;;8.75;2.78;;;24.80;44.30;;;;;;4973000;28;20049;-74
2022/05/21 12:24:35;;;;;;;8.10;2.00;;;24.90;44.30;;;;;;4971124;28;20026;-73
2022/05/21 12:27:27;;;;;;;6.35;1.42;;;24.90;44.20;;;;;;4982381;28;20101;-72
2022/05/21 12:30:03;;;;;;;5.93;1.42;;;25.00;44.20;;;;;;4980973;28;20034;-73
2022/05/21 12:32:32;;;;;;;9.30;1.98;;;25.00;44.30;;;;;;4982934;28;20441;-73
2022/05/21 12:35:25;;;;;;;6.93;1.33;;;24.90;44.20;;;;;;4990527;28;20038;-73
2022/05/21 12:37:56;;;;;;;6.63;1.95;;;24.90;44.10;;;;;;4985396;28;20849;-73
2022/05/21 12:40:42;;;;;;;7.30;1.15;;;25.00;44.50;;;;;;4966244;28;20030;-73
2022/05/21 12:43:12;;;;;;;9.93;2.70;;;25.00;44.20;;;;;;4967113;28;20122;-73
2022/05/21 12:45:49;;;;;;;3.17;1.42;;;25.20;44.10;;;;;;4978422;28;20031;-73
2022/05/21 12:48:16;;;;;;;6.28;2.00;;;25.40;43.70;;;;;;4976048;28;20232;-74
2022/05/21 12:51:02;;;;;;;9.93;1.80;;;25.60;44.20;;;;;;4966966;28;20035;-74
2022/05/21 12:53:32;;;;;;;5.88;1.42;;;25.80;42.70;;;;;;4976014;28;20031;-74
2022/05/21 12:56:05;;;;;;;5.68;1.38;;;25.90;42.70;;;;;;4980761;28;20038;-74
2022/05/21 12:58:32;;;;;;;5.93;1.65;;;25.90;42.30;;;;;;4963056;28;20031;-73
2022/05/21 13:01:00;;;;;;;6.22;1.60;;;26.00;42.40;;;;;;4964626;28;20501;-73
2022/05/21 13:03:32;;;;;;;3.95;1.58;;;26.10;42.30;;;;;;4971589;28;20125;-74
2022/05/21 13:06:04;;;;;;;5.38;1.40;;;26.20;41.90;;;;;;4981910;28;20030;-74
2022/05/21 13:08:32;;;;;;;6.30;1.97;;;26.30;41.90;;;;;;4971458;28;20038;-74
2022/05/21 13:11:18;;;;;;;5.03;1.20;;;26.50;41.70;;;;;;4983980;28;20496;-73
2022/05/21 13:13:54;;;;;;;5.05;1.85;;;26.70;41.00;;;;;;4979644;28;20037;-74
2022/05/21 13:16:23;;;;;;;5.80;1.88;;;26.90;41.10;;;;;;4980121;28;20128;-74
2022/05/21 13:18:48;;;;;;;5.00;1.70;;;27.10;41.40;;;;;;4978946;28;20429;-74
2022/05/21 13:21:37;;;;;;;7.85;2.22;;;27.30;40.40;;;;;;4966336;28;20109;-74
2022/05/21 13:24:03;;;;;;;7.85;1.70;;;27.40;39.90;;;;;;4979665;28;20042;-74
2022/05/21 13:26:34;;;;;;;5.28;1.40;;;27.60;40.00;;;;;;4983086;28;20405;-75
2022/05/21 13:29:25;;;;;;;5.07;1.73;;;27.60;39.80;;;;;;4964818;28;20046;-74
2022/05/21 13:31:52;;;;;;;6.28;1.90;;;27.50;39.30;;;;;;4964091;28;20045;-74
2022/05/21 13:34:23;;;;;;;6.53;1.40;;;27.70;39.50;;;;;;4968178;28;20192;-74
2022/05/21 13:36:54;;;;;;;5.45;1.15;;;27.80;39.20;;;;;;4985031;28;20042;-74